createdAt,value
2022-08-05T00:02:07.316Z,19.45
2022-08-05T00:04:38.251Z,24.95
2022-08-05T00:07:21.741Z,20.75
2022-08-05T00:09:59.455Z,20.83
2022-08-05T00:12:28.661Z,19.20
2022-08-05T00:14:58.792Z,21.48
2022-08-05T00:17:44.238Z,17.88
2022-08-05T00:20:20.178Z,18.05
2022-08-05T00:22:59.622Z,18.73
2022-08-05T00:25:45.324Z,20.05
2022-08-05T00:28:16.166Z,18.02
2022-08-05T00:31:02.826Z,18.90
2022-08-05T00:34:56.058Z,18.90
2022-08-05T00:37:10.449Z,29.48
2022-08-05T00:39:17.235Z,22.37
2022-08-05T00:41:51.847Z,25.00
2022-08-05T00:44:30.836Z,19.65
2022-08-05T00:47:01.521Z,23.30
2022-08-05T00:49:32.578Z,24.37
2022-08-05T00:52:02.469Z,22.30
2022-08-05T00:54:33.032Z,20.15
2022-08-05T00:57:04.617Z,25.03
2022-08-05T00:59:42.019Z,20.83
2022-08-05T01:02:13.959Z,22.10
2022-08-05T01:04:50.462Z,22.52
2022-08-05T01:07:20.987Z,24.83
2022-08-05T01:09:55.691Z,22.95
2022-08-05T01:12:29.705Z,26.30
2022-08-05T01:15:18.703Z,23.13
2022-08-05T01:18:09.198Z,23.25
2022-08-05T01:21:22.869Z,24.35
2022-08-05T01:24:24.069Z,28.10
2022-08-05T01:27:17.741Z,25.77
2022-08-05T01:29:54.650Z,23.30
2022-08-05T01:32:29.507Z,22.60
2022-08-05T01:35:10.462Z,29.17
2022-08-05T01:37:51.425Z,22.30
2022-08-05T01:40:29.125Z,25.93
2022-08-05T01:43:04.148Z,24.50
2022-08-05T01:45:43.114Z,22.50
2022-08-05T01:48:13.919Z,20.80
2022-08-05T01:50:50.887Z,21.80
2022-08-05T01:53:55.151Z,20.83
2022-08-05T01:58:09.708Z,17.58
2022-08-05T01:59:13.579Z,19.83
2022-08-05T02:01:45.164Z,17.42
2022-08-05T02:04:20.107Z,14.43
2022-08-05T02:06:51.559Z,18.05
2022-08-05T02:09:21.364Z,17.65
2022-08-05T02:11:54.833Z,16.98
2022-08-05T02:14:54.415Z,18.08
2022-08-05T02:18:30.790Z,14.30
2022-08-05T02:20:28.226Z,16.33
2022-08-05T02:23:11.512Z,15.05
2022-08-05T02:25:50.273Z,17.42
2022-08-05T02:28:31.114Z,14.25
2022-08-05T02:31:13.807Z,20.27
2022-08-05T02:33:57.352Z,20.80
2022-08-05T02:36:31.583Z,26.37
2022-08-05T02:39:08.707Z,19.00
2022-08-05T02:41:57.459Z,18.02
2022-08-05T02:44:31.993Z,20.20
2022-08-05T02:47:04.106Z,19.08
2022-08-05T02:49:40.650Z,25.42
2022-08-05T02:52:30.201Z,22.85
2022-08-05T02:55:10.653Z,22.20
2022-08-05T02:58:10.337Z,22.42
2022-08-05T03:00:33.153Z,25.85
2022-08-05T03:03:07.646Z,23.30
2022-08-05T03:06:54.111Z,18.20
2022-08-05T03:08:34.194Z,23.77
2022-08-05T03:11:55.114Z,19.60
2022-08-05T03:14:03.047Z,15.40
2022-08-05T03:16:33.592Z,15.85
2022-08-05T03:19:17.226Z,20.50
2022-08-05T03:21:57.191Z,16.48
2022-08-05T03:24:30.795Z,13.83
2022-08-05T03:27:02.353Z,21.10
2022-08-05T03:29:44.501Z,17.73
2022-08-05T03:32:20.874Z,16.10
2022-08-05T03:35:02.173Z,19.27
2022-08-05T03:37:45.734Z,16.83
2022-08-05T03:40:31.500Z,13.07
2022-08-05T03:43:58.252Z,12.25
2022-08-05T03:45:57.755Z,17.25
2022-08-05T03:48:35.462Z,15.75
2022-08-05T03:52:36.907Z,17.02
2022-08-05T03:55:53.358Z,19.53
2022-08-05T03:57:16.313Z,17.77
2022-08-05T03:59:54.988Z,21.52
2022-08-05T04:02:37.882Z,19.43
2022-08-05T04:05:11.761Z,19.90
2022-08-05T04:07:57.454Z,17.27
2022-08-05T04:10:37.716Z,17.33
2022-08-05T04:13:10.552Z,19.95
2022-08-05T04:16:03.233Z,14.32
2022-08-05T04:18:31.711Z,16.80
2022-08-05T04:21:02.394Z,25.30
2022-08-05T04:24:00.238Z,20.77
2022-08-05T04:26:32.422Z,17.77
2022-08-05T04:29:07.408Z,18.20
2022-08-05T04:31:39.478Z,24.80
2022-08-05T04:34:31.283Z,22.13
2022-08-05T04:36:59.700Z,24.30
2022-08-05T04:39:30.887Z,20.48
2022-08-05T04:42:02.072Z,23.67
2022-08-05T04:44:35.113Z,25.45
2022-08-05T04:47:09.131Z,24.45
2022-08-05T04:50:03.098Z,26.08
2022-08-05T04:52:34.145Z,24.48
2022-08-05T04:55:14.758Z,18.40
2022-08-05T04:57:54.029Z,22.65
2022-08-05T05:00:25.431Z,25.08
2022-08-05T05:02:59.116Z,21.23
2022-08-05T05:06:40.040Z,18.90
2022-08-05T05:08:30.191Z,23.15
2022-08-05T05:11:00.552Z,21.92
2022-08-05T05:13:32.362Z,21.23
2022-08-05T05:16:13.831Z,21.20
2022-08-05T05:19:08.934Z,23.23
2022-08-05T05:21:36.551Z,25.77
2022-08-05T05:24:08.883Z,24.27
2022-08-05T05:26:39.952Z,21.33
2022-08-05T05:29:16.712Z,23.05
2022-08-05T05:31:49.299Z,21.70
2022-08-05T05:34:26.817Z,21.13
2022-08-05T05:36:57.792Z,23.67
2022-08-05T05:39:31.524Z,22.27
2022-08-05T05:42:04.911Z,24.83
2022-08-05T05:44:36.755Z,26.15
2022-08-05T05:47:21.489Z,25.35
2022-08-05T05:50:01.820Z,22.55
2022-08-05T05:52:38.010Z,20.98
2022-08-05T05:55:14.012Z,21.85
2022-08-05T05:57:52.195Z,20.20
2022-08-05T06:00:27.782Z,20.58
2022-08-05T06:03:40.255Z,20.52
2022-08-05T06:06:12.191Z,21.85
2022-08-05T06:08:42.392Z,23.40
2022-08-05T06:11:20.652Z,22.88
2022-08-05T06:13:54.118Z,21.52
2022-08-05T06:16:32.610Z,22.57
2022-08-05T06:19:05.773Z,23.40
2022-08-05T06:21:42.910Z,21.67
2022-08-05T06:24:25.861Z,22.35
2022-08-05T06:26:57.432Z,21.90
2022-08-05T06:29:51.945Z,20.80
2022-08-05T06:32:25.323Z,23.30
2022-08-05T06:34:58.072Z,26.50
2022-08-05T06:37:58.075Z,25.58
2022-08-05T06:40:21.140Z,20.73
2022-08-05T06:42:52.973Z,24.95
2022-08-05T06:45:44.823Z,22.92
2022-08-05T06:48:47.186Z,20.52
2022-08-05T06:51:09.482Z,22.23
2022-08-05T06:53:40.003Z,17.17
2022-08-05T06:56:25.940Z,17.08
2022-08-05T06:58:57.594Z,14.40
2022-08-05T07:01:32.190Z,12.50
2022-08-05T07:04:03.591Z,11.77
2022-08-05T07:06:33.292Z,13.00
2022-08-05T07:09:06.630Z,11.20
2022-08-05T07:11:40.872Z,12.13
2022-08-05T07:14:32.165Z,9.93
2022-08-05T07:17:58.471Z,10.82
2022-08-05T07:20:32.107Z,11.32
2022-08-05T07:22:46.082Z,12.43
2022-08-05T07:25:22.525Z,9.55
2022-08-05T07:28:09.636Z,13.15
2022-08-05T07:30:41.854Z,14.02
2022-08-05T07:33:17.112Z,10.98
2022-08-05T07:36:03.568Z,8.07
2022-08-05T07:38:43.491Z,12.63
2022-08-05T07:42:08.289Z,8.88
2022-08-05T07:44:18.505Z,7.28
2022-08-05T07:46:50.933Z,8.65
2022-08-05T07:49:23.044Z,7.90
2022-08-05T07:51:55.043Z,9.05
2022-08-05T07:54:33.609Z,9.32
2022-08-05T07:57:16.969Z,13.15
2022-08-05T07:59:59.035Z,13.15
2022-08-05T08:03:13.322Z,8.37
2022-08-05T08:05:21.112Z,8.40
2022-08-05T08:07:59.060Z,11.60
2022-08-05T08:10:31.353Z,8.13
2022-08-05T08:13:03.033Z,9.77
2022-08-05T08:16:33.287Z,8.90
2022-08-05T08:18:22.991Z,11.05
2022-08-05T08:21:02.729Z,11.20
2022-08-05T08:24:01.329Z,7.43
2022-08-05T08:26:26.834Z,11.50
2022-08-05T08:29:45.117Z,10.90
2022-08-05T08:31:54.654Z,13.25
2022-08-05T08:34:30.389Z,11.60
2022-08-05T08:37:03.344Z,13.23
2022-08-05T08:39:37.635Z,9.80
2022-08-05T08:42:33.621Z,9.47
2022-08-05T08:45:18.857Z,11.95
2022-08-05T08:48:12.909Z,11.07
2022-08-05T08:51:03.814Z,10.30
2022-08-05T08:53:44.373Z,10.90
2022-08-05T08:56:15.039Z,14.80
2022-08-05T08:58:47.869Z,11.43
2022-08-05T09:01:20.114Z,11.98
2022-08-05T09:03:57.604Z,12.30
2022-08-05T09:06:33.271Z,12.60
2022-08-05T09:15:16.092Z,10.85
2022-08-05T09:18:03.592Z,11.05
2022-08-05T09:30:44.335Z,10.63
2022-08-05T09:50:01.566Z,12.85
2022-08-05T09:58:43.653Z,18.30
2022-08-05T10:07:59.406Z,18.57
2022-08-05T10:10:28.012Z,14.68
2022-08-05T10:32:52.469Z,20.50
2022-08-05T10:43:54.944Z,17.08
2022-08-05T10:56:21.427Z,20.53
2022-08-05T11:02:34.980Z,21.10
2022-08-05T11:11:52.977Z,20.08
2022-08-05T11:15:11.797Z,20.57
2022-08-05T11:27:37.016Z,17.45
2022-08-05T11:38:27.962Z,23.25
2022-08-05T11:44:40.192Z,20.77
2022-08-05T11:50:32.557Z,19.07
2022-08-05T11:53:21.876Z,18.80
2022-08-05T12:11:41.750Z,19.90
2022-08-05T12:18:03.110Z,23.48
2022-08-05T12:20:52.273Z,23.83
2022-08-05T12:23:21.754Z,23.42
2022-08-05T12:32:04.693Z,22.52
2022-08-05T12:47:04.553Z,21.02
2022-08-05T13:01:56.678Z,22.38
2022-08-05T13:02:39.830Z,22.48
2022-08-05T13:14:42.232Z,22.88
2022-08-05T13:17:31.766Z,21.65
2022-08-05T13:26:50.646Z,20.58
2022-08-05T13:29:38.772Z,23.05
2022-08-05T13:35:54.233Z,18.38
2022-08-05T13:41:37.759Z,16.83
2022-08-05T13:44:10.120Z,18.17
2022-08-05T13:50:04.190Z,27.70
2022-08-05T13:55:42.591Z,27.15
2022-08-05T13:58:40.274Z,18.53
2022-08-05T14:01:44.360Z,17.60
2022-08-05T14:04:54.678Z,18.08
2022-08-05T14:08:01.175Z,18.85
2022-08-05T14:10:53.114Z,16.30
2022-08-05T14:20:02.352Z,24.67
2022-08-05T14:26:00.789Z,24.75
2022-08-05T14:28:52.415Z,29.80
2022-08-05T14:32:03.618Z,24.70
2022-08-05T14:47:06.732Z,19.63
2022-08-05T14:52:52.433Z,18.57
2022-08-05T15:01:18.198Z,28.75
2022-08-05T15:10:28.628Z,24.38
2022-08-05T15:28:42.877Z,27.63
2022-08-05T15:38:33.474Z,19.27
2022-08-05T15:50:00.837Z,23.38
2022-08-05T15:52:53.871Z,23.08
2022-08-05T16:04:58.395Z,25.40
2022-08-05T16:13:36.953Z,21.67
2022-08-05T16:22:35.336Z,25.43
2022-08-05T16:31:14.512Z,25.42
2022-08-05T16:36:48.953Z,31.23
2022-08-05T16:40:06.133Z,29.15
2022-08-05T16:42:46.054Z,25.88
2022-08-05T16:48:44.474Z,24.88
2022-08-05T16:54:28.644Z,70.20
2022-08-05T17:05:59.445Z,53.72
2022-08-05T17:08:33.386Z,43.47
2022-08-05T17:11:25.974Z,34.00
2022-08-05T17:14:05.658Z,25.27
2022-08-05T17:25:49.036Z,86.95
2022-08-05T17:34:32.632Z,68.88
2022-08-05T17:40:12.702Z,191.02
2022-08-05T17:42:50.967Z,129.27
2022-08-05T17:45:22.952Z,167.40
2022-08-05T17:57:23.254Z,188.75
2022-08-05T18:09:10.794Z,24.88
2022-08-05T18:12:02.393Z,23.35
2022-08-05T18:14:53.113Z,23.80
2022-08-05T18:17:58.959Z,21.47
2022-08-05T18:31:16.397Z,23.58
2022-08-05T18:33:49.815Z,22.98
2022-08-05T18:40:31.772Z,22.75
2022-08-05T18:45:56.166Z,20.27
2022-08-05T18:52:08.513Z,20.00
2022-08-05T19:00:48.084Z,21.50
2022-08-05T19:06:22.382Z,19.83
2022-08-05T19:18:35.353Z,21.08
2022-08-05T19:43:05.382Z,25.02
2022-08-05T19:58:29.329Z,21.80
2022-08-05T20:01:27.192Z,31.25
2022-08-05T20:07:46.828Z,123.38
2022-08-05T20:13:58.994Z,154.65
2022-08-05T20:19:45.373Z,250.57
2022-08-05T20:25:40.172Z,106.80
2022-08-05T20:34:35.912Z,82.20
2022-08-05T20:43:57.423Z,36.35
2022-08-05T20:46:39.592Z,25.85
2022-08-05T20:58:22.064Z,17.80
2022-08-05T21:04:14.397Z,15.90
2022-08-05T21:13:02.647Z,20.55
2022-08-05T21:15:59.774Z,26.48
2022-08-05T21:27:59.986Z,17.30
2022-08-05T21:30:48.817Z,16.88
2022-08-05T21:33:22.433Z,16.30
2022-08-05T21:36:10.892Z,17.80
2022-08-05T21:38:40.817Z,22.33
2022-08-05T21:41:12.009Z,22.42
2022-08-05T21:50:09.424Z,15.27
2022-08-05T21:52:59.145Z,16.55
2022-08-05T22:05:17.127Z,18.50
2022-08-05T22:10:53.257Z,21.80
2022-08-05T22:16:51.155Z,24.23
2022-08-05T22:23:02.864Z,20.92
2022-08-05T22:26:10.102Z,23.40
2022-08-05T22:28:40.833Z,21.80
2022-08-05T22:46:29.899Z,23.63
2022-08-05T22:55:18.221Z,22.50
2022-08-05T23:04:15.061Z,24.60
2022-08-05T23:13:12.550Z,26.35
2022-08-05T23:15:59.991Z,31.13
2022-08-05T23:34:09.906Z,21.08
2022-08-05T23:36:58.990Z,23.63
2022-08-05T23:39:54.239Z,24.15
2022-08-05T23:45:28.064Z,21.88
2022-08-05T23:54:36.250Z,20.73
